Time;durP1;ratioP1;P1;durP2;ratioP2;P2;SDS_P1;SDS_P2;PMS_P1;PMS_P2;Temp;Humidity;BMP_temperature;BMP_pressure;BME280_temperature;BME280_humidity;BME280_pressure;Samples;Min_cycle;Max_cycle;Signal;HPM_P1;HPM_P2
2023/01/13 00:03:16;;;;;;;;;;;17.60;42.10;;;;;;8365419;28;20000;-43
2023/01/13 00:07:16;;;;;;;;;;;17.60;42.10;;;;;;8364811;28;19928;-43
2023/01/13 00:11:17;;;;;;;;;;;17.60;42.10;;;;;;8364200;28;19917;-43
2023/01/13 00:15:18;;;;;;;;;;;17.60;42.10;;;;;;8364884;28;20284;-43
2023/01/13 00:19:18;;;;;;;;;;;17.60;42.10;;;;;;8364442;28;20290;-43
2023/01/13 00:23:19;;;;;;;;;;;17.60;42.10;;;;;;8363978;28;19928;-43
2023/01/13 00:27:19;;;;;;;;;;;17.60;42.20;;;;;;8364471;28;19964;-44
2023/01/13 00:31:20;;;;;;;;;;;17.60;42.20;;;;;;8364211;28;19924;-43
2023/01/13 00:35:20;;;;;;;;;;;17.60;42.20;;;;;;8362708;28;20044;-43
2023/01/13 00:39:21;;;;;;;;;;;17.50;42.20;;;;;;8363497;28;19929;-43
2023/01/13 00:43:21;;;;;;;;;;;17.50;42.20;;;;;;8363974;28;20387;-43
2023/01/13 00:47:24;;;;;;;;;;;17.50;42.20;;;;;;8363507;28;19928;-43
2023/01/13 00:51:26;;;;;;;;;;;17.50;42.20;;;;;;8363545;28;20356;-43
2023/01/13 00:55:29;;;;;;;;;;;17.50;42.20;;;;;;8363254;28;19920;-44
2023/01/13 00:59:29;;;;;;;;;;;17.50;42.20;;;;;;8362745;28;20401;-44
2023/01/13 01:03:30;;;;;;;;;;;17.50;42.20;;;;;;8363385;28;20003;-44
2023/01/13 01:07:30;;;;;;;;;;;17.50;42.20;;;;;;8363015;28;20301;-43
2023/01/13 01:11:31;;;;;;;;;;;17.50;42.30;;;;;;8362643;28;19917;-43
2023/01/13 01:15:32;;;;;;;;;;;17.50;42.30;;;;;;8363115;28;19917;-44
2023/01/13 01:19:36;;;;;;;;;;;17.50;42.30;;;;;;8362850;28;19932;-43
2023/01/13 01:23:37;;;;;;;;;;;17.50;42.30;;;;;;8362676;28;19920;-44
2023/01/13 01:27:37;;;;;;;;;;;17.50;42.30;;;;;;8362812;28;19920;-44
2023/01/13 01:31:38;;;;;;;;;;;17.50;42.30;;;;;;8362825;28;19964;-44
2023/01/13 01:35:39;;;;;;;;;;;17.50;42.30;;;;;;8362512;28;19924;-44
2023/01/13 01:39:39;;;;;;;;;;;17.50;42.30;;;;;;8362789;28;19932;-44
2023/01/13 01:43:58;;;;;;;;;;;17.50;42.30;;;;;;8362737;28;19924;-44
2023/01/13 01:48:01;;;;;;;;;;;17.50;42.30;;;;;;8367599;28;19924;-43
2023/01/13 01:52:13;;;;;;;;;;;17.50;42.30;;;;;;8369121;28;19917;-43
2023/01/13 01:56:14;;;;;;;;;;;17.50;42.30;;;;;;8368520;28;20012;-44
2023/01/13 02:00:15;;;;;;;;;;;17.50;42.40;;;;;;8369203;28;19921;-43
2023/01/13 02:04:19;;;;;;;;;;;17.40;42.40;;;;;;8369134;28;19995;-44
2023/01/13 02:08:19;;;;;;;;;;;17.50;42.40;;;;;;8349557;28;19956;-43
2023/01/13 02:12:30;;;;;;;;;;;17.50;42.40;;;;;;8358218;28;19916;-43
2023/01/13 02:16:31;;;;;;;;;;;17.40;42.40;;;;;;8368326;28;19958;-44
2023/01/13 02:20:46;;;;;;;;;;;17.40;42.40;;;;;;8367922;28;19974;-43
2023/01/13 02:24:53;;;;;;;;;;;17.50;42.40;;;;;;8368052;28;19920;-45
2023/01/13 02:33:30;;;;;;;;;;;17.50;42.30;;;;;;8372225;28;19923;-44
2023/01/13 02:37:34;;;;;;;;;;;17.50;42.40;;;;;;8367643;28;19921;-44
2023/01/13 02:46:15;;;;;;;;;;;17.40;42.40;;;;;;8372399;28;19935;-44
2023/01/13 02:50:21;;;;;;;;;;;17.40;42.40;;;;;;8366996;28;20397;-44
2023/01/13 02:54:23;;;;;;;;;;;17.40;42.50;;;;;;8367359;28;20281;-44
2023/01/13 02:58:25;;;;;;;;;;;17.40;42.50;;;;;;8366061;28;19925;-43
2023/01/13 03:02:26;;;;;;;;;;;17.40;42.50;;;;;;8366440;28;20381;-44
2023/01/13 03:06:35;;;;;;;;;;;17.40;42.50;;;;;;8367036;28;19963;-44
2023/01/13 03:10:54;;;;;;;;;;;17.40;42.50;;;;;;8366730;28;19916;-44
2023/01/13 03:14:56;;;;;;;;;;;17.40;42.50;;;;;;8366371;28;20286;-43
2023/01/13 03:19:12;;;;;;;;;;;17.40;42.50;;;;;;8366344;28;19943;-44
2023/01/13 03:23:17;;;;;;;;;;;17.40;42.50;;;;;;8365901;28;19939;-44
2023/01/13 03:27:21;;;;;;;;;;;17.40;42.60;;;;;;8366362;28;20297;-44
2023/01/13 03:31:24;;;;;;;;;;;17.40;42.50;;;;;;8366133;28;19920;-43
2023/01/13 03:35:27;;;;;;;;;;;17.40;42.60;;;;;;8365531;28;19919;-44
2023/01/13 03:39:31;;;;;;;;;;;17.40;42.60;;;;;;8365993;28;19932;-44
2023/01/13 03:47:57;;;;;;;;;;;17.40;42.50;;;;;;8365312;28;19939;-44
2023/01/13 03:52:01;;;;;;;;;;;17.40;42.60;;;;;;8365555;28;19921;-43
2023/01/13 03:56:17;;;;;;;;;;;17.40;42.60;;;;;;8365165;28;19979;-44
2023/01/13 04:00:20;;;;;;;;;;;17.40;42.50;;;;;;8365333;28;19925;-43
2023/01/13 04:04:32;;;;;;;;;;;17.40;42.60;;;;;;8365161;28;19916;-43
2023/01/13 04:08:33;;;;;;;;;;;17.40;42.60;;;;;;8364287;28;19916;-43
2023/01/13 04:16:56;;;;;;;;;;;17.40;42.60;;;;;;8364222;28;19967;-44
2023/01/13 04:20:57;;;;;;;;;;;17.40;42.60;;;;;;8364796;28;20255;-43
2023/01/13 04:24:58;;;;;;;;;;;17.40;42.60;;;;;;8364610;28;19968;-43
2023/01/13 04:28:58;;;;;;;;;;;17.40;42.60;;;;;;8363850;28;19928;-43
2023/01/13 04:32:58;;;;;;;;;;;17.40;42.60;;;;;;8364136;28;19967;-43
2023/01/13 04:36:59;;;;;;;;;;;17.40;42.60;;;;;;8364025;28;19921;-43
2023/01/13 04:40:59;;;;;;;;;;;17.40;42.60;;;;;;8363540;28;19916;-43
2023/01/13 04:45:00;;;;;;;;;;;17.40;42.70;;;;;;8364312;28;19912;-43
2023/01/13 04:49:00;;;;;;;;;;;17.40;42.60;;;;;;8363594;28;19931;-43
2023/01/13 04:53:01;;;;;;;;;;;17.40;42.70;;;;;;8363240;28;19913;-44
2023/01/13 04:57:01;;;;;;;;;;;17.40;42.70;;;;;;8363685;28;19931;-43
2023/01/13 05:01:02;;;;;;;;;;;17.50;42.70;;;;;;8363351;28;19959;-44
2023/01/13 05:05:02;;;;;;;;;;;17.40;42.60;;;;;;8362402;28;19924;-43
2023/01/13 05:09:03;;;;;;;;;;;17.40;42.60;;;;;;8363177;28;19917;-43
2023/01/13 05:17:24;;;;;;;;;;;17.50;42.70;;;;;;8362659;28;19983;-45
2023/01/13 05:25:51;;;;;;;;;;;17.40;42.70;;;;;;8339985;28;20039;-44
2023/01/13 05:29:52;;;;;;;;;;;17.40;42.70;;;;;;8362767;28;19917;-43
2023/01/13 05:33:53;;;;;;;;;;;17.40;42.80;;;;;;8362904;28;19996;-43
2023/01/13 05:37:53;;;;;;;;;;;17.40;42.70;;;;;;8362303;28;19921;-43
2023/01/13 05:46:13;;;;;;;;;;;17.40;42.70;;;;;;8362915;28;20033;-43
2023/01/13 05:50:14;;;;;;;;;;;17.40;42.70;;;;;;8362462;28;19917;-43
2023/01/13 05:54:15;;;;;;;;;;;17.50;42.80;;;;;;8362444;28;19921;-43
2023/01/13 05:58:16;;;;;;;;;;;17.50;42.80;;;;;;8362556;28;20008;-44
2023/01/13 06:02:16;;;;;;;;;;;17.40;42.80;;;;;;8362031;28;20002;-43
2023/01/13 06:06:17;;;;;;;;;;;17.50;42.90;;;;;;8362348;28;19913;-44
2023/01/13 06:10:17;;;;;;;;;;;17.50;42.90;;;;;;8362524;28;19924;-44
2023/01/13 06:14:18;;;;;;;;;;;17.50;42.80;;;;;;8361816;28;19921;-43
2023/01/13 06:18:18;;;;;;;;;;;17.50;42.80;;;;;;8362383;28;19972;-44
2023/01/13 06:22:27;;;;;;;;;;;17.50;42.80;;;;;;8362046;28;19917;-43
2023/01/13 06:26:28;;;;;;;;;;;17.40;42.80;;;;;;8361625;28;19919;-44
2023/01/13 06:30:31;;;;;;;;;;;17.40;42.80;;;;;;8362273;28;19920;-44
2023/01/13 06:34:32;;;;;;;;;;;17.50;42.90;;;;;;8365525;28;19917;-45
2023/01/13 06:38:34;;;;;;;;;;;17.40;42.80;;;;;;8367243;28;19931;-44
2023/01/13 06:46:54;;;;;;;;;;;17.50;42.90;;;;;;8369191;28;20370;-44
2023/01/13 06:50:55;;;;;;;;;;;17.50;42.90;;;;;;8367844;28;19912;-44
2023/01/13 06:54:56;;;;;;;;;;;17.50;42.80;;;;;;8367087;28;20003;-44
2023/01/13 06:58:56;;;;;;;;;;;17.50;42.90;;;;;;8365126;28;19928;-44
2023/01/13 07:03:13;;;;;;;;;;;17.50;42.90;;;;;;8366912;28;19947;-42
2023/01/13 07:07:14;;;;;;;;;;;17.50;42.90;;;;;;8366862;28;19917;-43
2023/01/13 07:11:14;;;;;;;;;;;17.50;42.90;;;;;;8366436;28;19920;-44
2023/01/13 07:15:17;;;;;;;;;;;17.50;42.90;;;;;;8366750;28;19931;-43
2023/01/13 07:19:22;;;;;;;;;;;17.50;42.90;;;;;;8366425;28;19929;-43
2023/01/13 07:23:23;;;;;;;;;;;17.50;43.50;;;;;;8365888;28;19917;-44
2023/01/13 07:27:23;;;;;;;;;;;17.40;42.90;;;;;;8366498;28;19916;-43
2023/01/13 07:31:24;;;;;;;;;;;17.50;42.90;;;;;;8366528;28;20377;-43
2023/01/13 07:35:25;;;;;;;;;;;17.50;43.00;;;;;;8365728;28;19921;-43
2023/01/13 07:39:25;;;;;;;;;;;17.50;42.90;;;;;;8365910;28;19933;-44
2023/01/13 07:43:31;;;;;;;;;;;17.50;42.90;;;;;;8365308;28;19917;-44
2023/01/13 07:47:32;;;;;;;;;;;17.50;42.90;;;;;;8365331;28;20365;-43
2023/01/13 07:51:36;;;;;;;;;;;17.50;42.90;;;;;;8365878;28;19913;-44
2023/01/13 07:55:41;;;;;;;;;;;17.50;43.00;;;;;;8365305;28;19971;-44
2023/01/13 07:59:41;;;;;;;;;;;17.50;42.90;;;;;;8364567;28;20011;-43
2023/01/13 08:03:42;;;;;;;;;;;17.50;42.90;;;;;;8363973;28;19917;-43
2023/01/13 08:07:42;;;;;;;;;;;17.50;42.90;;;;;;8364365;28;20364;-44
2023/01/13 08:11:43;;;;;;;;;;;17.50;43.00;;;;;;8364719;28;19920;-44
2023/01/13 08:15:44;;;;;;;;;;;17.50;42.90;;;;;;8364577;28;19940;-44
2023/01/13 08:19:45;;;;;;;;;;;17.50;42.90;;;;;;8364042;28;20370;-43
2023/01/13 08:23:45;;;;;;;;;;;17.50;42.90;;;;;;8364218;28;19931;-45
2023/01/13 08:27:47;;;;;;;;;;;17.50;42.90;;;;;;8364066;28;19924;-44
2023/01/13 08:31:47;;;;;;;;;;;17.50;42.90;;;;;;8364029;28;19967;-43
2023/01/13 08:35:51;;;;;;;;;;;17.50;42.90;;;;;;8364357;28;20003;-47
2023/01/13 08:39:51;;;;;;;;;;;17.50;42.90;;;;;;8364086;28;19931;-45
2023/01/13 08:43:52;;;;;;;;;;;17.50;42.90;;;;;;8363396;28;19916;-43
2023/01/13 08:47:52;;;;;;;;;;;17.50;43.00;;;;;;8362422;28;19917;-45
2023/01/13 08:51:53;;;;;;;;;;;17.50;42.90;;;;;;8363880;28;19917;-43
2023/01/13 08:55:53;;;;;;;;;;;17.50;42.90;;;;;;8362445;28;20330;-45
2023/01/13 08:59:54;;;;;;;;;;;17.60;42.90;;;;;;8363446;28;19925;-44
2023/01/13 09:03:54;;;;;;;;;;;17.60;43.00;;;;;;8363643;28;20393;-45
2023/01/13 09:07:55;;;;;;;;;;;17.50;42.90;;;;;;8363331;28;19924;-45
2023/01/13 09:16:15;;;;;;;;;;;17.50;43.00;;;;;;8363373;28;19924;-45
2023/01/13 09:20:15;;;;;;;;;;;17.60;43.00;;;;;;8362769;28;19925;-44
2023/01/13 09:24:16;;;;;;;;;;;17.50;43.00;;;;;;8363204;28;19917;-44
2023/01/13 09:28:16;;;;;;;;;;;17.50;43.00;;;;;;8362794;28;19917;-43
2023/01/13 09:32:17;;;;;;;;;;;17.60;43.00;;;;;;8362738;28;19913;-43
2023/01/13 09:36:17;;;;;;;;;;;17.60;43.00;;;;;;8362499;28;19917;-44
2023/01/13 09:40:21;;;;;;;;;;;17.60;43.00;;;;;;8362560;28;20015;-44
2023/01/13 09:44:25;;;;;;;;;;;17.60;43.00;;;;;;8362155;28;19917;-44
2023/01/13 09:48:30;;;;;;;;;;;17.60;43.00;;;;;;8362607;28;19924;-44
2023/01/13 09:52:31;;;;;;;;;;;17.60;43.00;;;;;;8362682;28;19913;-44
2023/01/13 09:56:31;;;;;;;;;;;17.60;43.00;;;;;;8361818;28;20369;-44
2023/01/13 10:00:37;;;;;;;;;;;17.60;43.00;;;;;;8362563;28;19948;-44
2023/01/13 10:04:38;;;;;;;;;;;17.60;43.60;;;;;;8362377;28;19916;-45
2023/01/13 10:08:40;;;;;;;;;;;17.60;43.00;;;;;;8366052;28;19966;-44
2023/01/13 10:17:14;;;;;;;;;;;17.60;43.10;;;;;;8368347;28;20151;-44
2023/01/13 10:21:33;;;;;;;;;;;17.60;43.00;;;;;;8368249;28;19921;-44
2023/01/13 10:25:52;;;;;;;;;;;17.60;43.00;;;;;;8368204;28;19960;-44
2023/01/13 10:29:53;;;;;;;;;;;17.60;43.10;;;;;;8367730;28;20471;-44
2023/01/13 10:33:58;;;;;;;;;;;17.60;43.10;;;;;;8368082;28;19912;-45
2023/01/13 10:37:58;;;;;;;;;;;17.60;43.00;;;;;;8367363;28;20336;-44
2023/01/13 10:42:03;;;;;;;;;;;17.60;43.10;;;;;;8367862;28;19917;-44
2023/01/13 10:46:05;;;;;;;;;;;17.60;43.10;;;;;;8367979;28;20370;-46
2023/01/13 10:50:11;;;;;;;;;;;17.60;43.10;;;;;;8367095;28;20020;-44
2023/01/13 10:54:12;;;;;;;;;;;17.60;43.00;;;;;;8367199;28;19936;-43
2023/01/13 10:58:16;;;;;;;;;;;17.60;43.00;;;;;;8366878;28;19928;-44
2023/01/13 11:02:23;;;;;;;;;;;17.60;43.00;;;;;;8366966;28;20326;-44
2023/01/13 11:06:25;;;;;;;;;;;17.60;43.10;;;;;;8363690;28;19921;-44
2023/01/13 11:10:27;;;;;;;;;;;17.60;43.10;;;;;;8366841;28;19955;-45
2023/01/13 11:14:38;;;;;;;;;;;17.60;43.10;;;;;;8366198;28;19979;-44
2023/01/13 11:18:50;;;;;;;;;;;17.60;43.10;;;;;;8365830;28;19936;-45
2023/01/13 11:22:54;;;;;;;;;;;17.60;43.10;;;;;;8368724;28;20003;-43
2023/01/13 11:26:54;;;;;;;;;;;17.60;43.10;;;;;;8366250;28;19924;-44
2023/01/13 11:31:03;;;;;;;;;;;17.60;43.10;;;;;;8366084;28;19924;-45
2023/01/13 11:35:13;;;;;;;;;;;17.60;43.20;;;;;;8365782;28;19916;-44
2023/01/13 11:39:18;;;;;;;;;;;17.70;43.20;;;;;;8366341;28;19924;-45
2023/01/13 11:43:18;;;;;;;;;;;17.70;43.20;;;;;;8366117;28;20274;-44
2023/01/13 11:47:21;;;;;;;;;;;17.70;43.10;;;;;;8365177;28;19944;-43
2023/01/13 11:51:28;;;;;;;;;;;17.70;43.10;;;;;;8365437;28;19917;-43
2023/01/13 11:55:33;;;;;;;;;;;17.70;43.20;;;;;;8365544;28;19982;-44
2023/01/13 11:59:37;;;;;;;;;;;17.60;43.10;;;;;;8364741;28;19925;-44
2023/01/13 12:03:42;;;;;;;;;;;17.70;43.20;;;;;;8364988;28;19913;-44
2023/01/13 12:07:55;;;;;;;;;;;17.70;43.20;;;;;;8365001;28;19913;-42
2023/01/13 12:16:23;;;;;;;;;;;17.70;43.20;;;;;;8368533;28;19924;-43
2023/01/13 12:20:32;;;;;;;;;;;17.60;43.10;;;;;;8364175;28;19925;-43
2023/01/13 12:24:38;;;;;;;;;;;17.70;43.60;;;;;;8364747;28;19939;-43
2023/01/13 12:28:38;;;;;;;;;;;17.70;43.10;;;;;;8364702;28;19924;-44
2023/01/13 12:32:39;;;;;;;;;;;17.70;43.10;;;;;;8363608;28;19940;-45
2023/01/13 12:36:58;;;;;;;;;;;17.70;43.10;;;;;;8364292;28;19948;-44
2023/01/13 12:41:05;;;;;;;;;;;17.70;43.10;;;;;;8363627;28;20246;-44
2023/01/13 12:45:08;;;;;;;;;;;17.70;43.20;;;;;;8364108;28;19916;-44
2023/01/13 12:49:19;;;;;;;;;;;17.70;43.10;;;;;;8363782;28;19932;-44
2023/01/13 12:53:33;;;;;;;;;;;17.70;43.10;;;;;;8363588;28;19920;-43
2023/01/13 12:57:33;;;;;;;;;;;17.70;43.10;;;;;;8363852;28;19925;-44
2023/01/13 13:01:35;;;;;;;;;;;17.70;43.10;;;;;;8363665;28;19917;-43
2023/01/13 13:05:43;;;;;;;;;;;17.70;43.10;;;;;;8362545;28;21284;-44
2023/01/13 13:09:46;;;;;;;;;;;17.70;43.10;;;;;;8363443;28;19916;-45
2023/01/13 13:13:47;;;;;;;;;;;17.70;43.00;;;;;;8363109;28;19913;-44
2023/01/13 13:18:07;;;;;;;;;;;17.80;43.00;;;;;;8362989;28;20055;-45
2023/01/13 13:22:08;;;;;;;;;;;17.70;42.90;;;;;;8363068;28;19924;-44
2023/01/13 13:26:11;;;;;;;;;;;17.80;42.90;;;;;;8362611;28;19917;-44
2023/01/13 13:30:13;;;;;;;;;;;17.80;42.90;;;;;;8362869;28;20385;-44
2023/01/13 13:34:20;;;;;;;;;;;17.70;42.90;;;;;;8362950;28;19913;-45
2023/01/13 13:47:14;;;;;;;;;;;17.80;42.90;;;;;;8368927;28;19924;-43
2023/01/13 13:51:21;;;;;;;;;;;17.80;42.90;;;;;;8369404;28;19917;-44
2023/01/13 13:55:23;;;;;;;;;;;17.80;42.90;;;;;;8369181;28;19924;-44
2023/01/13 13:59:25;;;;;;;;;;;17.70;42.90;;;;;;8368608;28;19921;-45
2023/01/13 14:03:29;;;;;;;;;;;17.80;42.80;;;;;;8367812;28;19963;-43
2023/01/13 14:07:29;;;;;;;;;;;17.80;42.80;;;;;;8345999;28;20335;-44
2023/01/13 14:11:31;;;;;;;;;;;17.80;42.80;;;;;;8348815;28;19917;-44
2023/01/13 14:15:35;;;;;;;;;;;17.80;42.80;;;;;;8357785;28;19917;-45
2023/01/13 14:19:35;;;;;;;;;;;17.80;42.80;;;;;;8358151;28;20055;-45
2023/01/13 14:23:36;;;;;;;;;;;17.80;42.80;;;;;;8368703;28;19942;-48
2023/01/13 14:27:41;;;;;;;;;;;17.80;42.80;;;;;;8361155;28;19924;-43
2023/01/13 14:31:42;;;;;;;;;;;17.80;42.80;;;;;;8365784;28;20381;-44
2023/01/13 14:36:01;;;;;;;;;;;17.80;42.80;;;;;;8366578;28;19958;-44
2023/01/13 14:40:02;;;;;;;;;;;17.80;42.80;;;;;;8353643;28;19925;-44
2023/01/13 14:44:16;;;;;;;;;;;17.80;42.80;;;;;;8361766;28;19932;-44
2023/01/13 14:48:16;;;;;;;;;;;17.80;42.80;;;;;;8350327;28;19917;-44
2023/01/13 14:52:22;;;;;;;;;;;17.80;42.80;;;;;;8360057;28;19917;-44
2023/01/13 14:56:41;;;;;;;;;;;17.80;42.80;;;;;;8355641;28;19972;-45
2023/01/13 15:00:41;;;;;;;;;;;17.80;42.80;;;;;;8353865;28;19932;-45
2023/01/13 15:04:42;;;;;;;;;;;17.80;42.80;;;;;;8368460;28;19917;-44
2023/01/13 15:08:42;;;;;;;;;;;17.80;43.30;;;;;;8361011;28;19965;-44
2023/01/13 15:12:43;;;;;;;;;;;17.80;42.80;;;;;;8362897;28;19916;-45
2023/01/13 15:16:43;;;;;;;;;;;17.80;42.80;;;;;;8363114;28;19917;-44
2023/01/13 15:20:44;;;;;;;;;;;17.80;42.80;;;;;;8365629;28;19924;-44
2023/01/13 15:24:46;;;;;;;;;;;17.80;42.80;;;;;;8339469;28;20297;-44
2023/01/13 15:28:47;;;;;;;;;;;17.70;42.90;;;;;;8363244;28;19917;-44
2023/01/13 15:32:48;;;;;;;;;;;17.80;42.90;;;;;;8359765;28;19951;-43
2023/01/13 15:36:48;;;;;;;;;;;17.80;42.90;;;;;;8354201;28;19987;-46
2023/01/13 15:40:49;;;;;;;;;;;17.70;42.90;;;;;;8360986;28;19976;-44
2023/01/13 15:49:11;;;;;;;;;;;17.80;42.80;;;;;;8334332;28;20301;-43
2023/01/13 15:53:12;;;;;;;;;;;17.70;42.90;;;;;;8341116;28;19967;-45
2023/01/13 15:57:32;;;;;;;;;;;17.80;42.80;;;;;;8359205;28;20424;-44
2023/01/13 16:01:33;;;;;;;;;;;17.80;42.90;;;;;;8347832;28;19966;-44
2023/01/13 16:05:33;;;;;;;;;;;17.70;42.90;;;;;;8358614;28;19917;-43
2023/01/13 16:09:34;;;;;;;;;;;17.80;42.90;;;;;;8353160;28;19924;-43
2023/01/13 16:13:34;;;;;;;;;;;17.80;42.90;;;;;;8362285;28;19916;-43
2023/01/13 16:17:35;;;;;;;;;;;17.70;42.90;;;;;;8356894;28;19932;-44
2023/01/13 16:21:35;;;;;;;;;;;17.70;42.80;;;;;;8352144;28;19917;-44
2023/01/13 16:25:36;;;;;;;;;;;17.70;42.90;;;;;;8364256;28;20727;-44
2023/01/13 16:29:36;;;;;;;;;;;17.70;42.90;;;;;;8357772;28;20389;-44
2023/01/13 16:33:36;;;;;;;;;;;17.70;42.90;;;;;;8361271;28;20003;-45
2023/01/13 16:37:37;;;;;;;;;;;17.80;42.90;;;;;;8347722;28;19932;-45
2023/01/13 16:41:37;;;;;;;;;;;17.70;42.90;;;;;;8348211;28;19923;-43
2023/01/13 16:45:38;;;;;;;;;;;17.70;42.80;;;;;;8342522;28;20038;-44
2023/01/13 16:49:39;;;;;;;;;;;17.70;42.90;;;;;;8356189;28;20384;-43
2023/01/13 16:53:39;;;;;;;;;;;17.70;42.90;;;;;;8353630;28;19916;-43
2023/01/13 16:57:40;;;;;;;;;;;17.70;42.90;;;;;;8357483;28;19936;-44
2023/01/13 17:01:41;;;;;;;;;;;17.70;43.00;;;;;;8363554;28;19913;-44
2023/01/13 17:05:43;;;;;;;;;;;17.70;43.00;;;;;;8362048;28;19971;-45
2023/01/13 17:09:43;;;;;;;;;;;17.70;42.90;;;;;;8363283;28;19967;-44
2023/01/13 17:13:44;;;;;;;;;;;17.70;43.00;;;;;;8362750;28;19932;-44
2023/01/13 17:17:50;;;;;;;;;;;17.70;43.00;;;;;;8362618;28;19936;-44
2023/01/13 17:21:51;;;;;;;;;;;17.70;43.00;;;;;;8363154;28;20332;-44
2023/01/13 17:25:53;;;;;;;;;;;17.70;43.00;;;;;;8362496;28;19917;-45
2023/01/13 17:29:53;;;;;;;;;;;17.70;42.90;;;;;;8363172;28;19920;-44
2023/01/13 17:33:54;;;;;;;;;;;17.70;43.00;;;;;;8363054;28;19917;-44
2023/01/13 17:37:55;;;;;;;;;;;17.70;43.00;;;;;;8362186;28;19920;-44
2023/01/13 17:41:55;;;;;;;;;;;17.70;43.00;;;;;;8362814;28;19912;-44
2023/01/13 17:45:56;;;;;;;;;;;17.70;43.00;;;;;;8362553;28;19916;-44
2023/01/13 17:49:57;;;;;;;;;;;17.70;43.00;;;;;;8362424;28;19931;-45
2023/01/13 17:53:57;;;;;;;;;;;17.70;43.00;;;;;;8362774;28;19921;-44
2023/01/13 17:57:57;;;;;;;;;;;17.70;43.00;;;;;;8362272;28;19931;-45
2023/01/13 18:01:58;;;;;;;;;;;17.70;43.00;;;;;;8362376;28;19917;-45
2023/01/13 18:06:05;;;;;;;;;;;17.70;43.00;;;;;;8362519;28;20034;-44
2023/01/13 18:10:06;;;;;;;;;;;17.70;43.00;;;;;;8362524;28;19913;-45
2023/01/13 18:14:08;;;;;;;;;;;17.70;43.00;;;;;;8361718;28;19920;-45
2023/01/13 18:18:08;;;;;;;;;;;17.70;43.00;;;;;;8362225;28;19936;-43
2023/01/13 18:30:50;;;;;;;;;;;17.70;43.00;;;;;;8373630;28;20413;-45
2023/01/13 18:34:50;;;;;;;;;;;17.70;43.00;;;;;;8367582;28;19921;-45
2023/01/13 18:38:51;;;;;;;;;;;17.70;43.10;;;;;;8368330;28;19932;-44
2023/01/13 18:42:53;;;;;;;;;;;17.70;43.00;;;;;;8367629;28;19917;-45
2023/01/13 18:46:53;;;;;;;;;;;17.70;43.00;;;;;;8367127;28;19916;-45
2023/01/13 18:50:54;;;;;;;;;;;17.70;43.00;;;;;;8367779;28;19913;-45
2023/01/13 18:54:54;;;;;;;;;;;17.70;43.00;;;;;;8367583;28;20388;-45
2023/01/13 18:58:54;;;;;;;;;;;17.70;43.10;;;;;;8366488;28;19925;-44
2023/01/13 19:02:59;;;;;;;;;;;17.70;43.00;;;;;;8367430;28;20003;-44
2023/01/13 19:07:00;;;;;;;;;;;17.70;43.00;;;;;;8367156;28;20262;-44
2023/01/13 19:11:04;;;;;;;;;;;17.70;42.90;;;;;;8366449;28;19913;-45
2023/01/13 19:15:05;;;;;;;;;;;17.70;42.90;;;;;;8367043;28;20370;-44
2023/01/13 19:19:05;;;;;;;;;;;17.70;43.00;;;;;;8366470;28;19970;-45
2023/01/13 19:23:06;;;;;;;;;;;17.60;42.90;;;;;;8366022;28;19920;-45
2023/01/13 19:27:07;;;;;;;;;;;17.60;42.90;;;;;;8366153;28;19916;-44
2023/01/13 19:31:09;;;;;;;;;;;17.60;42.90;;;;;;8366559;28;19993;-44
2023/01/13 19:35:11;;;;;;;;;;;17.60;43.00;;;;;;8365673;28;19917;-44
2023/01/13 19:39:12;;;;;;;;;;;17.60;42.90;;;;;;8365480;28;20339;-44
2023/01/13 19:47:32;;;;;;;;;;;17.60;42.90;;;;;;8365722;28;19939;-45
2023/01/13 19:51:32;;;;;;;;;;;17.60;42.90;;;;;;8365817;28;19913;-44
2023/01/13 19:55:33;;;;;;;;;;;17.60;42.80;;;;;;8365697;28;19983;-44
2023/01/13 19:59:34;;;;;;;;;;;17.60;42.80;;;;;;8364684;28;20449;-44
2023/01/13 20:03:36;;;;;;;;;;;17.60;42.90;;;;;;8357018;28;19917;-44
2023/01/13 20:07:37;;;;;;;;;;;17.60;42.80;;;;;;8365136;28;19917;-44
2023/01/13 20:11:37;;;;;;;;;;;17.60;42.90;;;;;;8364819;28;19913;-44
2023/01/13 20:15:38;;;;;;;;;;;17.60;42.90;;;;;;8364970;28;19952;-44
2023/01/13 20:19:39;;;;;;;;;;;17.60;42.90;;;;;;8364745;28;20289;-45
2023/01/13 20:23:39;;;;;;;;;;;17.60;42.90;;;;;;8364155;28;19928;-45
2023/01/13 20:27:40;;;;;;;;;;;17.60;43.00;;;;;;8364492;28;20293;-44
2023/01/13 20:31:40;;;;;;;;;;;17.60;42.90;;;;;;8364516;28;19913;-45
2023/01/13 20:35:43;;;;;;;;;;;17.60;42.90;;;;;;8363866;28;19939;-45
2023/01/13 20:39:45;;;;;;;;;;;17.60;42.90;;;;;;8364128;28;19924;-44
2023/01/13 20:43:45;;;;;;;;;;;17.60;42.90;;;;;;8363417;28;19924;-43
2023/01/13 20:47:46;;;;;;;;;;;17.60;42.90;;;;;;8363907;28;19921;-44
2023/01/13 20:51:46;;;;;;;;;;;17.60;42.90;;;;;;8362948;28;19913;-44
2023/01/13 20:55:47;;;;;;;;;;;17.60;42.90;;;;;;8363621;28;19935;-45
2023/01/13 20:59:47;;;;;;;;;;;17.60;42.90;;;;;;8363620;28;20500;-44
2023/01/13 21:03:48;;;;;;;;;;;17.60;42.90;;;;;;8363409;28;20407;-44
2023/01/13 21:07:48;;;;;;;;;;;17.60;42.90;;;;;;8362817;28;20000;-44
2023/01/13 21:16:08;;;;;;;;;;;17.60;42.90;;;;;;8363291;28;19923;-44
2023/01/13 21:20:10;;;;;;;;;;;17.60;42.90;;;;;;8362822;28;19924;-44
2023/01/13 21:24:11;;;;;;;;;;;17.60;42.90;;;;;;8363484;28;19916;-44
2023/01/13 21:28:12;;;;;;;;;;;17.60;42.90;;;;;;8363118;28;19917;-45
2023/01/13 21:32:13;;;;;;;;;;;17.60;42.90;;;;;;8362848;28;19927;-44
2023/01/13 21:36:14;;;;;;;;;;;17.60;42.90;;;;;;8363185;28;19917;-44
2023/01/13 21:40:14;;;;;;;;;;;17.60;42.90;;;;;;8363138;28;19978;-44
2023/01/13 21:48:35;;;;;;;;;;;17.70;42.90;;;;;;8362980;28;20431;-44
2023/01/13 21:52:36;;;;;;;;;;;17.70;42.80;;;;;;8362728;28;19913;-44
2023/01/13 21:56:36;;;;;;;;;;;17.70;42.70;;;;;;8362390;28;20339;-44
2023/01/13 22:00:37;;;;;;;;;;;17.80;42.70;;;;;;8362820;28;19963;-44
2023/01/13 22:04:38;;;;;;;;;;;17.70;42.70;;;;;;8366885;28;20370;-44
2023/01/13 22:08:38;;;;;;;;;;;17.70;42.70;;;;;;8368420;28;19923;-44
2023/01/13 22:12:39;;;;;;;;;;;17.80;42.70;;;;;;8368866;28;19917;-44
2023/01/13 22:16:41;;;;;;;;;;;17.80;42.70;;;;;;8368939;28;19921;-44
2023/01/13 22:20:41;;;;;;;;;;;17.80;42.70;;;;;;8364210;28;19925;-42
2023/01/13 22:24:42;;;;;;;;;;;17.80;42.70;;;;;;8367293;28;19917;-44
2023/01/13 22:28:43;;;;;;;;;;;17.70;42.70;;;;;;8367850;28;19913;-43
2023/01/13 22:32:43;;;;;;;;;;;17.70;42.70;;;;;;8367102;28;19913;-45
2023/01/13 22:36:44;;;;;;;;;;;17.70;42.70;;;;;;8368245;28;19923;-45
2023/01/13 22:40:44;;;;;;;;;;;17.80;42.70;;;;;;8367349;28;20286;-44
2023/01/13 22:44:45;;;;;;;;;;;17.80;42.70;;;;;;8367909;28;20547;-45
2023/01/13 22:48:47;;;;;;;;;;;17.80;42.70;;;;;;8367836;28;19959;-46
2023/01/13 22:52:47;;;;;;;;;;;17.90;42.70;;;;;;8365488;28;19916;-43
2023/01/13 22:56:48;;;;;;;;;;;17.80;42.30;;;;;;8356194;28;19928;-44
2023/01/13 23:00:48;;;;;;;;;;;17.90;43.40;;;;;;8364063;28;20289;-45
2023/01/13 23:04:49;;;;;;;;;;;17.90;43.90;;;;;;8353756;28;19923;-46
2023/01/13 23:08:50;;;;;;;;;;;18.00;43.70;;;;;;8367341;28;20358;-47
2023/01/13 23:12:51;;;;;;;;;;;18.00;43.60;;;;;;8366830;28;19917;-46
2023/01/13 23:16:52;;;;;;;;;;;18.10;43.60;;;;;;8364460;28;19917;-46
2023/01/13 23:20:53;;;;;;;;;;;18.00;43.60;;;;;;8357442;28;20378;-46
2023/01/13 23:24:53;;;;;;;;;;;18.00;43.30;;;;;;8364639;28;20337;-44
2023/01/13 23:29:04;;;;;;;;;;;18.00;43.10;;;;;;8365498;28;19916;-45
2023/01/13 23:33:05;;;;;;;;;;;17.90;43.20;;;;;;8366219;28;19916;-45
2023/01/13 23:37:05;;;;;;;;;;;18.00;43.40;;;;;;8362222;28;19921;-45
2023/01/13 23:41:07;;;;;;;;;;;18.00;43.30;;;;;;8364742;28;20046;-44
2023/01/13 23:45:08;;;;;;;;;;;18.00;43.30;;;;;;8365908;28;19917;-44
2023/01/13 23:49:08;;;;;;;;;;;18.00;43.70;;;;;;8365924;28;19960;-45
2023/01/13 23:53:09;;;;;;;;;;;18.00;43.30;;;;;;8365436;28;19916;-45
2023/01/13 23:57:09;;;;;;;;;;;18.00;43.40;;;;;;8365663;28;19971;-45
